createdAt,value
2022-10-22T00:04:58.032Z,6.97
2022-10-22T00:10:04.015Z,6.63
2022-10-22T00:15:09.189Z,6.07
2022-10-22T00:20:13.499Z,6.68
2022-10-22T00:25:19.082Z,9.77
2022-10-22T00:30:23.413Z,11.50
2022-10-22T00:35:27.431Z,8.27
2022-10-22T00:40:33.000Z,7.05
2022-10-22T00:45:37.495Z,7.32
2022-10-22T00:50:44.833Z,7.10
2022-10-22T00:55:54.248Z,6.40
2022-10-22T01:00:59.214Z,7.47
2022-10-22T01:06:06.366Z,6.43
2022-10-22T01:11:21.033Z,6.18
2022-10-22T01:16:35.363Z,6.75
2022-10-22T01:21:45.179Z,5.80
2022-10-22T01:27:13.145Z,6.93
2022-10-22T01:32:21.750Z,6.35
2022-10-22T01:37:30.785Z,7.13
2022-10-22T01:42:35.082Z,7.22
2022-10-22T01:47:50.548Z,7.63
2022-10-22T01:53:12.844Z,7.35
2022-10-22T01:58:30.061Z,7.40
2022-10-22T02:03:42.063Z,5.85
2022-10-22T02:08:47.468Z,6.68
2022-10-22T02:13:55.752Z,6.55
2022-10-22T02:19:05.551Z,8.15
2022-10-22T02:24:10.314Z,6.82
2022-10-22T02:29:20.078Z,5.90
2022-10-22T02:34:31.534Z,6.78
2022-10-22T02:39:39.781Z,6.32
2022-10-22T02:44:44.419Z,7.15
2022-10-22T02:49:49.895Z,10.20
2022-10-22T02:54:54.225Z,10.00
2022-10-22T02:59:58.167Z,8.23
2022-10-22T03:05:03.780Z,8.07
2022-10-22T03:10:08.746Z,11.85
2022-10-22T03:15:12.670Z,7.43
2022-10-22T03:20:18.083Z,5.93
2022-10-22T03:25:26.551Z,6.22
2022-10-22T03:30:33.647Z,6.35
2022-10-22T03:35:44.777Z,7.47
2022-10-22T03:40:49.401Z,9.93
2022-10-22T03:45:53.622Z,17.40
2022-10-22T03:51:00.391Z,11.65
2022-10-22T03:56:04.833Z,8.65
2022-10-22T04:01:12.003Z,8.50
2022-10-22T04:06:18.150Z,7.95
2022-10-22T04:11:22.645Z,7.45
2022-10-22T04:16:31.172Z,6.45
2022-10-22T04:21:38.837Z,11.13
2022-10-22T04:26:43.212Z,17.13
2022-10-22T04:31:47.389Z,11.10
2022-10-22T04:36:52.838Z,7.38
2022-10-22T04:41:57.319Z,6.50
2022-10-22T04:47:01.552Z,6.45
2022-10-22T04:52:07.652Z,8.90
2022-10-22T04:57:11.853Z,8.45
2022-10-22T05:02:17.490Z,8.30
2022-10-22T05:07:24.818Z,6.93
2022-10-22T05:12:31.361Z,11.63
2022-10-22T05:17:38.946Z,14.23
2022-10-22T05:22:45.530Z,8.85
2022-10-22T05:27:51.313Z,12.00
2022-10-22T05:32:56.011Z,19.05
2022-10-22T05:38:01.613Z,18.25
2022-10-22T05:43:05.692Z,17.15
2022-10-22T05:48:11.782Z,21.00
2022-10-22T05:53:18.773Z,24.23
2022-10-22T05:58:23.019Z,19.38
2022-10-22T06:03:29.079Z,15.73
2022-10-22T06:08:35.220Z,15.43
2022-10-22T06:13:40.045Z,13.38
2022-10-22T06:18:44.336Z,25.13
2022-10-22T06:23:50.685Z,24.13
2022-10-22T06:28:55.936Z,27.67
2022-10-22T06:34:00.360Z,26.65
2022-10-22T06:39:07.456Z,28.85
2022-10-22T06:44:15.712Z,21.40
2022-10-22T06:49:20.590Z,24.98
2022-10-22T06:54:26.003Z,16.52
2022-10-22T06:59:30.030Z,12.05
2022-10-22T07:04:36.371Z,14.60
2022-10-22T07:09:41.834Z,17.23
2022-10-22T07:14:46.030Z,11.25
2022-10-22T07:19:51.289Z,10.10
2022-10-22T07:25:01.607Z,8.43
2022-10-22T07:30:09.769Z,7.25
2022-10-22T07:35:16.999Z,7.38
2022-10-22T07:40:24.871Z,6.90
2022-10-22T07:45:29.143Z,7.05
2022-10-22T07:50:33.153Z,6.00
2022-10-22T07:55:39.086Z,6.55
2022-10-22T08:00:43.668Z,7.03
2022-10-22T08:05:47.894Z,6.68
2022-10-22T08:10:58.707Z,7.07
2022-10-22T08:16:03.679Z,6.60
2022-10-22T08:21:08.143Z,6.88
2022-10-22T08:26:13.620Z,7.10
2022-10-22T08:31:17.643Z,5.22
2022-10-22T08:36:22.086Z,8.48
2022-10-22T08:41:27.870Z,7.43
2022-10-22T08:46:46.026Z,6.55
2022-10-22T08:51:50.599Z,5.57
2022-10-22T08:57:13.733Z,5.05
2022-10-22T09:02:35.550Z,5.93
2022-10-22T09:07:50.056Z,4.35
2022-10-22T09:12:57.802Z,5.47
2022-10-22T09:18:15.854Z,5.70
2022-10-22T09:23:30.928Z,5.38
2022-10-22T09:28:37.985Z,3.88
2022-10-22T09:33:43.186Z,4.03
2022-10-22T09:38:48.896Z,4.15
2022-10-22T09:43:56.361Z,4.00
2022-10-22T09:49:07.787Z,3.38
2022-10-22T09:54:17.757Z,4.03
2022-10-22T09:59:30.811Z,4.43
2022-10-22T10:04:39.735Z,3.85
2022-10-22T10:15:01.181Z,3.75
2022-10-22T10:20:18.302Z,4.20
2022-10-22T10:25:35.722Z,3.53
2022-10-22T10:30:52.260Z,3.20
2022-10-22T10:36:05.168Z,3.92
2022-10-22T10:41:20.068Z,4.32
2022-10-22T10:46:36.922Z,3.55
2022-10-22T10:51:51.562Z,3.83
2022-10-22T10:57:01.921Z,3.67
2022-10-22T11:02:33.630Z,3.28
2022-10-22T11:07:51.049Z,3.63
2022-10-22T11:13:04.531Z,3.25
2022-10-22T11:18:19.198Z,3.67
2022-10-22T11:23:30.214Z,3.65
2022-10-22T11:28:39.195Z,3.88
2022-10-22T11:33:54.598Z,3.15
2022-10-22T11:39:05.575Z,4.30
2022-10-22T11:44:11.998Z,3.45
2022-10-22T11:49:25.587Z,3.28
2022-10-22T11:54:43.023Z,3.25
2022-10-22T11:59:51.754Z,3.80
2022-10-22T12:05:33.708Z,3.80
2022-10-22T12:10:56.785Z,3.33
2022-10-22T12:16:04.879Z,3.67
2022-10-22T12:21:14.950Z,3.90
2022-10-22T12:26:34.813Z,3.58
2022-10-22T12:31:41.709Z,6.22
2022-10-22T12:36:50.782Z,6.53
2022-10-22T12:41:55.058Z,4.43
2022-10-22T12:46:59.646Z,4.45
2022-10-22T12:52:10.963Z,4.45
2022-10-22T12:57:19.574Z,3.95
2022-10-22T13:02:25.671Z,3.70
2022-10-22T13:07:39.914Z,3.85
2022-10-22T13:12:46.379Z,4.43
2022-10-22T13:17:51.034Z,4.15
2022-10-22T13:23:00.449Z,4.45
2022-10-22T13:28:22.747Z,4.32
2022-10-22T13:33:32.274Z,4.20
2022-10-22T13:38:37.661Z,4.28
2022-10-22T13:43:41.685Z,9.02
2022-10-22T13:48:46.565Z,4.93
2022-10-22T13:53:54.113Z,4.20
2022-10-22T13:58:58.808Z,4.03
2022-10-22T14:04:03.242Z,4.20
2022-10-22T14:09:15.134Z,4.70
2022-10-22T14:14:19.748Z,3.80
2022-10-22T14:19:23.833Z,8.48
2022-10-22T14:24:29.300Z,12.43
2022-10-22T14:29:33.313Z,9.93
2022-10-22T14:34:37.411Z,9.70
2022-10-22T14:39:47.057Z,5.95
2022-10-22T14:44:51.231Z,10.63
2022-10-22T14:49:55.423Z,6.85
2022-10-22T14:55:01.092Z,8.85
2022-10-22T15:00:06.343Z,9.93
2022-10-22T15:05:10.495Z,7.35
2022-10-22T15:10:17.904Z,15.38
2022-10-22T15:15:22.864Z,11.15
2022-10-22T15:20:29.037Z,22.42
2022-10-22T15:25:36.581Z,19.13
2022-10-22T15:30:42.862Z,14.37
2022-10-22T15:35:48.306Z,15.32
2022-10-22T15:41:05.288Z,9.90
2022-10-22T15:46:13.045Z,14.85
2022-10-22T15:51:28.101Z,19.90
2022-10-22T15:56:34.077Z,18.13
2022-10-22T16:01:41.667Z,18.13
2022-10-22T16:06:50.468Z,46.83
2022-10-22T16:11:57.788Z,34.08
2022-10-22T16:17:02.153Z,31.60
2022-10-22T16:22:11.972Z,30.92
2022-10-22T16:27:17.368Z,33.30
2022-10-22T16:32:21.366Z,29.60
2022-10-22T16:37:25.399Z,27.95
2022-10-22T16:42:31.057Z,27.75
2022-10-22T16:47:37.502Z,21.85
2022-10-22T16:52:43.881Z,20.48
2022-10-22T16:57:53.719Z,16.02
2022-10-22T17:02:59.122Z,18.73
2022-10-22T17:08:03.500Z,20.02
2022-10-22T17:13:09.148Z,18.92
2022-10-22T17:18:14.072Z,21.23
2022-10-22T17:23:19.263Z,18.60
2022-10-22T17:28:26.183Z,14.60
2022-10-22T17:33:31.647Z,13.95
2022-10-22T17:38:36.965Z,13.18
2022-10-22T17:48:58.720Z,11.38
2022-10-22T17:54:05.921Z,11.27
2022-10-22T17:59:18.107Z,13.77
2022-10-22T18:04:26.309Z,18.25
2022-10-22T18:09:30.571Z,9.30
2022-10-22T18:14:36.414Z,15.30
2022-10-22T18:19:41.482Z,16.17
2022-10-22T18:24:45.733Z,8.48
2022-10-22T18:29:52.345Z,8.30
2022-10-22T18:34:56.562Z,9.43
2022-10-22T18:40:00.576Z,11.68
2022-10-22T18:45:07.136Z,10.63
2022-10-22T18:50:12.255Z,9.77
2022-10-22T18:55:16.609Z,10.93
2022-10-22T19:00:22.923Z,17.30
2022-10-22T19:05:27.592Z,14.63
2022-10-22T19:10:31.642Z,12.65
2022-10-22T19:15:40.616Z,12.93
2022-10-22T19:20:49.329Z,21.95
2022-10-22T19:26:02.131Z,11.90
2022-10-22T19:31:09.285Z,9.40
2022-10-22T19:36:15.380Z,8.88
2022-10-22T19:41:21.455Z,9.30
2022-10-22T19:46:29.082Z,9.13
2022-10-22T19:51:34.851Z,11.27
2022-10-22T19:56:41.517Z,14.80
2022-10-22T20:01:48.263Z,12.18
2022-10-22T20:06:52.809Z,9.10
2022-10-22T20:11:57.038Z,9.48
2022-10-22T20:17:02.686Z,9.38
2022-10-22T20:22:06.759Z,9.30
2022-10-22T20:27:11.101Z,9.63
2022-10-22T20:32:17.915Z,10.18
2022-10-22T20:37:22.707Z,13.07
2022-10-22T20:42:26.803Z,12.10
2022-10-22T20:47:44.417Z,10.05
2022-10-22T20:52:56.637Z,8.88
2022-10-22T20:58:02.231Z,10.60
2022-10-22T21:03:08.012Z,11.10
2022-10-22T21:08:19.646Z,10.77
2022-10-22T21:13:23.823Z,8.45
2022-10-22T21:18:29.841Z,8.52
2022-10-22T21:23:37.781Z,7.93
2022-10-22T21:28:41.863Z,8.10
2022-10-22T21:33:47.632Z,8.02
2022-10-22T21:38:54.802Z,9.02
2022-10-22T21:44:00.138Z,7.47
2022-10-22T21:49:06.055Z,9.07
2022-10-22T21:54:12.374Z,9.52
2022-10-22T21:59:16.325Z,10.32
2022-10-22T22:04:21.654Z,10.90
2022-10-22T22:09:25.715Z,9.00
2022-10-22T22:14:30.745Z,10.77
2022-10-22T22:19:36.168Z,9.68
2022-10-22T22:24:40.946Z,11.45
2022-10-22T22:29:45.446Z,12.77
2022-10-22T22:34:50.821Z,10.55
2022-10-22T22:39:55.110Z,17.60
2022-10-22T22:44:59.736Z,11.60
2022-10-22T22:50:06.028Z,8.07
2022-10-22T22:55:11.014Z,8.80
2022-10-22T23:00:15.608Z,8.73
2022-10-22T23:05:21.008Z,10.25
2022-10-22T23:10:25.413Z,10.50
2022-10-22T23:15:29.807Z,9.23
2022-10-22T23:20:39.471Z,9.32
2022-10-22T23:25:43.430Z,11.40
2022-10-22T23:30:47.440Z,9.98
2022-10-22T23:35:52.945Z,15.95
2022-10-22T23:40:58.200Z,13.50
2022-10-22T23:46:02.408Z,9.70
2022-10-22T23:51:09.346Z,10.68
2022-10-22T23:56:16.762Z,8.68
